Time;durP1;ratioP1;P1;durP2;ratioP2;P2;SDS_P1;SDS_P2;PMS_P1;PMS_P2;Temp;Humidity;BMP_temperature;BMP_pressure;BME280_temperature;BME280_humidity;BME280_pressure;Samples;Min_cycle;Max_cycle;Signal;HPM_P1;HPM_P2
2023/01/21 00:01:45;;;;;;;35.67;19.55;;;;;;;-2.00;100.00;101449.75;5050076;28;20447;-70
2023/01/21 00:04:11;;;;;;;37.72;19.83;;;;;;;-2.02;100.00;101456.22;5100394;28;20035;-70
2023/01/21 00:06:36;;;;;;;39.13;19.50;;;;;;;-2.04;100.00;101447.38;5110210;28;20077;-70
2023/01/21 00:09:02;;;;;;;38.67;20.33;;;;;;;-2.04;100.00;101449.25;5097945;28;20027;-70
2023/01/21 00:11:28;;;;;;;36.58;20.20;;;;;;;-2.04;100.00;101450.09;5096302;28;20453;-70
2023/01/21 00:13:53;;;;;;;33.50;19.70;;;;;;;-2.04;100.00;101444.66;5070069;28;20085;-70
2023/01/21 00:16:19;;;;;;;39.33;19.75;;;;;;;-2.07;100.00;101436.88;5049768;28;20039;-70
2023/01/21 00:18:46;;;;;;;42.92;19.98;;;;;;;-2.12;100.00;101442.03;5062996;28;20085;-70
2023/01/21 00:21:12;;;;;;;39.70;21.88;;;;;;;-2.09;100.00;101440.81;5079514;28;20032;-70
2023/01/21 00:23:37;;;;;;;44.00;22.48;;;;;;;-2.10;100.00;101441.84;5097260;28;20715;-70
2023/01/21 00:26:04;;;;;;;43.83;22.85;;;;;;;-2.09;100.00;101438.97;5096285;28;20028;-70
2023/01/21 00:28:30;;;;;;;42.20;22.60;;;;;;;-2.11;100.00;101438.28;5084958;28;20028;-70
2023/01/21 00:31:00;;;;;;;41.85;21.65;;;;;;;-2.09;100.00;101441.69;5092685;28;20039;-70
2023/01/21 00:33:26;;;;;;;43.13;23.05;;;;;;;-2.12;100.00;101447.47;5091384;28;20031;-70
2023/01/21 00:36:09;;;;;;;36.17;21.02;;;;;;;-2.12;100.00;101457.53;5048006;28;20034;-69
2023/01/21 00:38:34;;;;;;;40.55;20.00;;;;;;;-2.13;100.00;101450.41;5054338;28;20144;-69
2023/01/21 00:41:07;;;;;;;39.40;22.13;;;;;;;-2.16;100.00;101448.06;5053765;28;20067;-70
2023/01/21 00:43:33;;;;;;;34.13;19.38;;;;;;;-2.12;100.00;101450.19;5083245;28;20023;-69
2023/01/21 00:45:59;;;;;;;33.25;17.73;;;;;;;-2.13;100.00;101450.41;5045925;28;20062;-70
2023/01/21 00:48:24;;;;;;;34.50;17.63;;;;;;;-2.11;100.00;101454.63;5059219;28;20027;-70
2023/01/21 00:50:50;;;;;;;29.52;17.67;;;;;;;-2.10;100.00;101456.31;5079208;28;20064;-69
2023/01/21 00:53:19;;;;;;;26.80;16.58;;;;;;;-2.08;100.00;101454.25;5072787;28;20031;-70
2023/01/21 00:55:44;;;;;;;30.58;16.77;;;;;;;-2.09;100.00;101454.41;5062353;28;20061;-70
2023/01/21 00:58:10;;;;;;;28.23;16.23;;;;;;;-2.09;100.00;101447.13;5092072;28;20024;-70
2023/01/21 01:00:35;;;;;;;27.63;16.83;;;;;;;-2.09;100.00;101447.13;5082925;28;20032;-70
2023/01/21 01:03:01;;;;;;;29.38;17.50;;;;;;;-2.13;100.00;101450.41;5092513;28;20031;-70
2023/01/21 01:05:26;;;;;;;28.40;16.50;;;;;;;-2.06;100.00;101449.47;5074256;28;20392;-69
2023/01/21 01:07:52;;;;;;;30.25;16.90;;;;;;;-2.08;100.00;101454.25;5068420;28;20081;-69
2023/01/21 01:10:18;;;;;;;29.02;17.05;;;;;;;-2.09;100.00;101459.88;5082135;28;20061;-69
2023/01/21 01:12:43;;;;;;;27.45;16.27;;;;;;;-2.11;100.00;101453.78;5085068;28;20028;-70
2023/01/21 01:15:09;;;;;;;29.95;16.45;;;;;;;-2.10;100.00;101450.88;5069771;28;20038;-69
2023/01/21 01:17:35;;;;;;;27.25;16.65;;;;;;;-2.08;100.00;101450.69;5068842;28;20020;-69
2023/01/21 01:20:00;;;;;;;27.08;16.15;;;;;;;-2.10;100.00;101450.03;5061798;28;20042;-70
2023/01/21 01:22:26;;;;;;;30.35;16.42;;;;;;;-2.11;100.00;101453.78;5070055;28;20110;-69
2023/01/21 01:24:51;;;;;;;26.33;15.68;;;;;;;-2.08;100.00;101446.09;5090221;28;20024;-69
2023/01/21 01:27:17;;;;;;;26.70;14.90;;;;;;;-2.11;100.00;101446.47;5073328;28;20016;-69
2023/01/21 01:29:42;;;;;;;26.73;14.90;;;;;;;-2.10;100.00;101445.41;5043506;28;20031;-69
2023/01/21 01:32:08;;;;;;;23.98;14.73;;;;;;;-2.17;100.00;101444.50;5080442;28;20427;-69
2023/01/21 01:34:34;;;;;;;25.27;14.93;;;;;;;-2.17;100.00;101449.94;5078183;28;20373;-70
2023/01/21 01:36:59;;;;;;;24.63;14.65;;;;;;;-2.14;100.00;101446.84;5062325;28;20047;-70
2023/01/21 01:39:25;;;;;;;23.08;14.05;;;;;;;-2.16;100.00;101451.63;5062030;28;20029;-70
2023/01/21 01:41:50;;;;;;;20.13;12.32;;;;;;;-2.13;100.00;101455.84;5064813;28;20491;-70
2023/01/21 01:44:53;;;;;;;22.80;13.40;;;;;;;-2.13;100.00;101445.78;5077779;28;20028;-69
2023/01/21 01:47:19;;;;;;;21.83;13.07;;;;;;;-2.12;100.00;101447.47;5110091;28;20444;-69
2023/01/21 01:49:44;;;;;;;19.50;12.50;;;;;;;-2.07;100.00;101442.31;5068940;28;20032;-69
2023/01/21 01:52:10;;;;;;;17.98;11.50;;;;;;;-2.07;100.00;101442.31;5095743;28;20498;-69
2023/01/21 01:54:38;;;;;;;16.98;11.52;;;;;;;-2.09;100.00;101455.28;5061252;28;20031;-70
2023/01/21 01:57:04;;;;;;;17.35;10.52;;;;;;;-2.08;100.00;101456.97;5062222;28;20024;-69
2023/01/21 01:59:30;;;;;;;23.23;11.45;;;;;;;-2.08;100.00;101453.41;5072804;28;20028;-69
2023/01/21 02:02:01;;;;;;;18.67;11.13;;;;;;;-2.09;100.00;101458.00;5048171;28;20038;-69
2023/01/21 02:04:28;;;;;;;16.65;10.27;;;;;;;-2.08;100.00;101459.69;5061647;28;20090;-69
2023/01/21 02:06:54;;;;;;;21.33;10.73;;;;;;;-2.09;100.00;101463.47;5077408;28;20081;-70
2023/01/21 02:09:20;;;;;;;20.02;10.90;;;;;;;-2.11;100.00;101467.41;5056988;28;20023;-69
2023/01/21 02:11:45;;;;;;;17.70;10.50;;;;;;;-2.09;100.00;101471.63;5080756;28;20031;-69
2023/01/21 02:14:11;;;;;;;17.35;10.13;;;;;;;-2.15;100.00;101461.47;5061054;28;20035;-69
2023/01/21 02:16:54;;;;;;;15.55;9.80;;;;;;;-2.18;100.00;101470.00;5064055;28;20381;-70
2023/01/21 02:19:51;;;;;;;17.80;10.25;;;;;;;-2.20;100.00;101472.09;5092876;28;20053;-70
2023/01/21 02:22:39;;;;;;;17.00;9.93;;;;;;;-2.22;100.00;101468.69;5080158;28;20510;-70
2023/01/21 02:25:31;;;;;;;19.30;10.35;;;;;;;-2.23;100.00;101475.16;5079457;28;20424;-69
2023/01/21 02:28:24;;;;;;;16.92;10.10;;;;;;;-2.27;100.00;101479.28;5111850;28;20040;-69
2023/01/21 02:31:08;;;;;;;15.68;9.32;;;;;;;-2.29;100.00;101478.63;5096480;28;20059;-69
2023/01/21 02:33:45;;;;;;;15.30;9.13;;;;;;;-2.32;100.00;101479.00;5080486;28;20055;-70
2023/01/21 02:36:26;;;;;;;17.63;9.68;;;;;;;-2.36;100.00;101480.41;5067036;28;20044;-69
2023/01/21 02:39:02;;;;;;;17.27;9.85;;;;;;;-2.37;100.00;101482.28;5095895;28;20060;-69
2023/01/21 02:42:00;;;;;;;17.92;9.18;;;;;;;-2.40;100.00;101485.34;5078371;28;20032;-69
2023/01/21 02:44:41;;;;;;;19.55;9.07;;;;;;;-2.41;100.00;101485.56;5080661;28;20028;-69
2023/01/21 02:47:28;;;;;;;16.95;9.32;;;;;;;-2.42;100.00;101483.84;5075340;28;20439;-69
2023/01/21 02:50:16;;;;;;;13.73;8.30;;;;;;;-2.45;100.00;101482.38;5051924;28;20047;-69
2023/01/21 02:52:41;;;;;;;14.10;8.73;;;;;;;-2.47;100.00;101488.00;5097117;28;20110;-69
2023/01/21 02:55:15;;;;;;;13.88;8.70;;;;;;;-2.48;100.00;101490.88;5078433;28;20077;-69
2023/01/21 02:57:40;;;;;;;14.13;8.35;;;;;;;-2.45;100.00;101500.53;5076975;28;20054;-69
2023/01/21 03:00:16;;;;;;;14.27;8.85;;;;;;;-2.46;100.00;101499.72;5094944;28;20411;-69
2023/01/21 03:02:47;;;;;;;13.35;8.15;;;;;;;-2.47;100.00;101493.44;5093807;28;20035;-69
2023/01/21 03:05:27;;;;;;;13.88;8.10;;;;;;;-2.45;100.00;101508.72;5090491;28;20024;-70
2023/01/21 03:08:05;;;;;;;14.23;8.52;;;;;;;-2.47;100.00;101509.75;5070824;28;20107;-69
2023/01/21 03:10:39;;;;;;;13.82;8.25;;;;;;;-2.46;100.00;101510.59;5050488;28;20040;-69
2023/01/21 03:16:55;;;;;;;15.02;8.52;;;;;;;-2.51;100.00;101511.16;5079693;28;20028;-69
2023/01/21 03:18:47;;;;;;;17.85;8.80;;;;;;;-2.52;100.00;101509.44;5085156;28;20050;-69
2023/01/21 03:21:18;;;;;;;16.98;8.20;;;;;;;-2.49;100.00;101511.78;5081726;28;20648;-69
2023/01/21 03:23:45;;;;;;;17.40;7.35;;;;;;;-2.53;100.00;101513.22;5078655;28;20032;-69
2023/01/21 03:26:12;;;;;;;16.08;8.20;;;;;;;-2.52;100.00;101505.88;5076631;28;20020;-69
2023/01/21 03:28:43;;;;;;;14.27;7.82;;;;;;;-2.53;100.00;101515.09;5076850;28;20480;-70
2023/01/21 03:31:19;;;;;;;15.18;8.00;;;;;;;-2.50;100.00;101521.00;5064087;28;20097;-69
2023/01/21 03:33:47;;;;;;;23.05;8.57;;;;;;;-2.49;100.00;101519.13;5076045;28;20030;-69
2023/01/21 03:36:25;;;;;;;18.27;8.90;;;;;;;-2.50;100.00;101526.44;5066834;28;20573;-70
2023/01/21 03:38:51;;;;;;;21.65;10.23;;;;;;;-2.49;100.00;101522.69;5091937;28;20631;-69
2023/01/21 03:41:26;;;;;;;22.42;9.48;;;;;;;-2.49;100.00;101517.25;5083336;28;20019;-70
2023/01/21 03:43:52;;;;;;;22.15;9.95;;;;;;;-2.48;100.00;101520.81;5059184;28;20024;-69
2023/01/21 03:46:54;;;;;;;24.90;10.63;;;;;;;-2.47;100.00;101523.34;5080614;28;20057;-69
2023/01/21 03:49:24;;;;;;;22.95;11.43;;;;;;;-2.43;100.00;101525.69;5105404;28;20483;-69
2023/01/21 03:51:51;;;;;;;19.20;11.23;;;;;;;-2.44;100.00;101516.69;5084107;28;20028;-70
2023/01/21 03:54:17;;;;;;;19.35;10.27;;;;;;;-2.41;100.00;101519.06;5083832;28;20039;-70
2023/01/21 03:56:42;;;;;;;20.08;10.00;;;;;;;-2.38;100.00;101523.28;5070500;28;20024;-70
2023/01/21 03:59:08;;;;;;;21.20;11.02;;;;;;;-2.36;100.00;101521.22;5087949;28;20016;-69
2023/01/21 04:01:33;;;;;;;19.95;10.80;;;;;;;-2.34;100.00;101520.03;5082126;28;20024;-69
2023/01/21 04:03:59;;;;;;;24.00;10.95;;;;;;;-2.34;100.00;101513.72;5088207;28;20035;-70
2023/01/21 04:06:24;;;;;;;16.27;9.38;;;;;;;-2.32;100.00;101517.94;5080022;28;20403;-69
2023/01/21 04:08:50;;;;;;;22.20;10.57;;;;;;;-2.29;100.00;101514.00;5079885;28;20036;-69
2023/01/21 04:11:15;;;;;;;16.85;9.77;;;;;;;-2.24;100.00;101519.75;5091261;28;20032;-70
2023/01/21 04:13:41;;;;;;;18.98;9.90;;;;;;;-2.23;100.00;101515.13;5067984;28;20067;-70
2023/01/21 04:16:07;;;;;;;20.83;10.75;;;;;;;-2.23;100.00;101513.25;5096559;28;20035;-69
2023/01/21 04:18:32;;;;;;;21.00;10.75;;;;;;;-2.21;100.00;101516.66;5084840;28;20063;-69
2023/01/21 04:20:58;;;;;;;24.25;11.95;;;;;;;-2.20;100.00;101515.63;5109912;28;20732;-70
2023/01/21 04:23:23;;;;;;;21.08;11.18;;;;;;;-2.16;100.00;101511.50;5112383;28;20027;-70
2023/01/21 04:25:49;;;;;;;20.23;10.63;;;;;;;-2.12;100.00;101511.97;5069935;28;20023;-70
2023/01/21 04:28:15;;;;;;;19.63;10.25;;;;;;;-2.11;100.00;101514.50;5082426;28;20057;-70
2023/01/21 04:30:40;;;;;;;19.95;10.25;;;;;;;-2.11;100.00;101519.94;5082688;28;20024;-70
2023/01/21 04:33:06;;;;;;;19.17;10.15;;;;;;;-2.09;100.00;101523.34;5076644;28;20039;-70
2023/01/21 04:35:34;;;;;;;20.73;10.70;;;;;;;-2.06;100.00;101527.56;5072606;28;20476;-69
2023/01/21 04:37:59;;;;;;;19.15;10.02;;;;;;;-2.07;100.00;101528.59;5096080;28;20082;-70
2023/01/21 04:40:25;;;;;;;20.38;10.45;;;;;;;-2.02;100.00;101532.44;5066771;28;20435;-70
2023/01/21 04:42:50;;;;;;;16.33;9.05;;;;;;;-1.99;100.00;101533.94;5062049;28;20068;-70
2023/01/21 04:45:16;;;;;;;19.02;10.02;;;;;;;-1.99;100.00;101522.22;5080499;28;20042;-70
2023/01/21 04:47:42;;;;;;;20.05;10.32;;;;;;;-1.99;100.00;101531.22;5086067;28;20115;-70
2023/01/21 04:50:09;;;;;;;16.13;9.35;;;;;;;-2.00;100.00;101536.88;5079116;28;20032;-70
2023/01/21 04:52:34;;;;;;;20.27;10.02;;;;;;;-1.97;100.00;101533.78;5062442;28;20406;-70
2023/01/21 04:54:59;;;;;;;18.73;9.07;;;;;;;-1.97;100.00;101531.06;5079338;28;20035;-70
2023/01/21 04:57:25;;;;;;;25.00;10.68;;;;;;;-1.97;100.00;101536.50;5045246;28;20035;-69
2023/01/21 04:59:50;;;;;;;20.45;10.77;;;;;;;-1.96;100.00;101538.16;5065662;28;20023;-70
2023/01/21 05:02:16;;;;;;;20.48;9.60;;;;;;;-1.93;100.00;101535.06;5082502;28;20028;-69
2023/01/21 05:04:41;;;;;;;17.88;9.75;;;;;;;-1.90;100.00;101542.88;5064810;28;20030;-69
2023/01/21 05:07:07;;;;;;;19.85;9.75;;;;;;;-1.88;100.00;101535.38;5065823;28;20031;-69
2023/01/21 05:09:33;;;;;;;19.48;10.32;;;;;;;-1.86;100.00;101536.03;5062351;28;20491;-70
2023/01/21 05:11:58;;;;;;;20.92;10.02;;;;;;;-1.85;100.00;101535.00;5078590;28;20054;-70
2023/01/21 05:14:24;;;;;;;23.27;10.27;;;;;;;-1.83;100.00;101535.66;5061981;28;20032;-70
2023/01/21 05:16:49;;;;;;;19.17;10.77;;;;;;;-1.83;100.00;101538.38;5095214;28;20028;-70
2023/01/21 05:19:15;;;;;;;19.90;10.27;;;;;;;-1.84;100.00;101536.66;5081098;28;20035;-69
2023/01/21 05:21:40;;;;;;;23.15;11.38;;;;;;;-1.83;100.00;101533.78;5093298;28;20024;-70
2023/01/21 05:24:06;;;;;;;24.52;11.50;;;;;;;-1.83;100.00;101535.66;5070000;28;20024;-70
2023/01/21 05:26:31;;;;;;;24.77;10.77;;;;;;;-1.82;100.00;101537.34;5050412;28;20070;-70
2023/01/21 05:28:57;;;;;;;24.80;12.15;;;;;;;-1.85;100.00;101532.25;5064973;28;20039;-70
2023/01/21 05:31:23;;;;;;;26.65;11.85;;;;;;;-1.81;100.00;101537.16;5082267;28;20028;-70
2023/01/21 05:33:49;;;;;;;20.63;11.25;;;;;;;-1.81;100.00;101530.88;5061928;28;20055;-70
2023/01/21 05:36:14;;;;;;;27.08;12.45;;;;;;;-1.80;100.00;101525.22;5094238;28;20111;-70
2023/01/21 05:38:40;;;;;;;26.55;12.35;;;;;;;-1.80;100.00;101527.94;5079258;28;20066;-70
2023/01/21 05:41:05;;;;;;;24.30;11.30;;;;;;;-1.80;100.00;101532.56;5095095;28;20430;-70
2023/01/21 05:43:31;;;;;;;21.42;10.93;;;;;;;-1.79;100.00;101526.06;5064971;28;20028;-70
2023/01/21 05:45:56;;;;;;;20.95;10.25;;;;;;;-1.79;100.00;101531.50;5042381;28;20537;-69
2023/01/21 05:48:22;;;;;;;23.92;11.68;;;;;;;-1.78;100.00;101522.31;5074332;28;20038;-70
2023/01/21 05:50:48;;;;;;;23.00;10.60;;;;;;;-1.79;100.00;101531.50;5060997;28;20047;-69
2023/01/21 05:53:14;;;;;;;22.25;9.98;;;;;;;-1.78;100.00;101529.63;5063498;28;20032;-70
2023/01/21 05:55:40;;;;;;;25.15;10.00;;;;;;;-1.75;100.00;101537.44;5081093;28;20034;-70
2023/01/21 05:58:06;;;;;;;25.30;10.75;;;;;;;-1.78;100.00;101540.53;5084794;28;20032;-70
2023/01/21 06:00:31;;;;;;;22.05;10.20;;;;;;;-1.72;100.00;101548.81;5061050;28;20400;-70
2023/01/21 06:02:59;;;;;;;23.27;10.90;;;;;;;-1.64;100.00;101545.97;5091239;28;20438;-69
2023/01/21 06:05:25;;;;;;;24.15;10.63;;;;;;;-1.65;100.00;101541.56;5052484;28;20392;-70
2023/01/21 06:07:50;;;;;;;22.60;9.63;;;;;;;-1.58;100.00;101539.78;5074215;28;20019;-70
2023/01/21 06:10:16;;;;;;;20.45;9.68;;;;;;;-1.59;100.00;101548.13;5078108;28;20028;-70
2023/01/21 06:12:41;;;;;;;20.88;9.70;;;;;;;-1.55;100.00;101548.63;5070700;28;20496;-70
2023/01/21 06:15:07;;;;;;;20.90;9.75;;;;;;;-1.50;100.00;101554.34;5063913;28;20081;-70
2023/01/21 06:17:33;;;;;;;18.60;8.30;;;;;;;-1.51;100.00;101555.38;5094325;28;20028;-70
2023/01/21 06:19:58;;;;;;;17.35;8.00;;;;;;;-1.47;100.00;101560.25;5060565;28;20032;-70
2023/01/21 06:22:24;;;;;;;17.52;8.15;;;;;;;-1.44;100.00;101559.03;5040778;28;20686;-70
2023/01/21 06:24:49;;;;;;;19.35;8.73;;;;;;;-1.42;100.00;101551.50;5047675;28;20024;-70
2023/01/21 06:27:15;;;;;;;18.23;8.18;;;;;;;-1.42;100.00;101549.63;5044031;28;20066;-70
2023/01/21 06:29:40;;;;;;;18.25;8.38;;;;;;;-1.41;100.00;101548.59;5079323;28;20028;-70
2023/01/21 06:32:06;;;;;;;15.48;7.82;;;;;;;-1.40;100.00;101561.16;5052191;28;20361;-70
2023/01/21 06:34:31;;;;;;;19.42;8.45;;;;;;;-1.40;100.00;101561.16;5075760;28;20028;-70
2023/01/21 06:36:57;;;;;;;16.33;8.75;;;;;;;-1.40;100.00;101569.34;5068925;28;20400;-70
2023/01/21 06:39:22;;;;;;;23.25;10.00;;;;;;;-1.40;100.00;101565.78;5077883;28;20032;-70
2023/01/21 06:41:48;;;;;;;23.73;10.40;;;;;;;-1.39;100.00;101573.78;5063657;28;20031;-70
2023/01/21 06:44:13;;;;;;;20.90;8.63;;;;;;;-1.37;100.00;101577.13;5080032;28;20027;-70
2023/01/21 06:46:39;;;;;;;18.98;8.48;;;;;;;-1.35;100.00;101577.81;5088969;28;20024;-70
2023/01/21 06:49:04;;;;;;;17.70;8.95;;;;;;;-1.37;100.00;101582.59;5080938;28;20045;-70
2023/01/21 06:51:30;;;;;;;22.23;8.13;;;;;;;-1.32;100.00;101587.47;5080869;28;20024;-70
2023/01/21 06:53:55;;;;;;;18.60;8.40;;;;;;;-1.29;100.00;101589.81;5060246;28;20020;-70
2023/01/21 06:56:21;;;;;;;15.15;6.70;;;;;;;-1.28;100.00;101585.22;5055380;28;20057;-70
2023/01/21 06:58:47;;;;;;;14.30;7.53;;;;;;;-1.29;100.00;101589.81;5100015;28;20499;-70
2023/01/21 07:01:12;;;;;;;20.92;7.05;;;;;;;-1.25;100.00;101593.03;5077289;28;20077;-70
2023/01/21 07:03:38;;;;;;;19.60;7.40;;;;;;;-1.26;100.00;101591.34;5095584;28;20104;-70
2023/01/21 07:06:04;;;;;;;16.55;7.30;;;;;;;-1.22;100.00;101606.28;5081110;28;20024;-70
2023/01/21 07:08:29;;;;;;;15.50;6.30;;;;;;;-1.22;100.00;101601.69;5064462;28;20032;-70
2023/01/21 07:10:55;;;;;;;15.63;6.70;;;;;;;-1.21;100.00;101592.44;5066977;28;20511;-70
2023/01/21 07:13:20;;;;;;;13.88;6.72;;;;;;;-1.21;100.00;101603.34;5048936;28;20032;-70
2023/01/21 07:15:46;;;;;;;21.45;7.40;;;;;;;-1.21;100.00;101608.81;5076277;28;20583;-70
2023/01/21 07:18:11;;;;;;;19.48;7.05;;;;;;;-1.20;100.00;101610.53;5098168;28;20414;-70
2023/01/21 07:20:39;;;;;;;20.67;8.48;;;;;;;-1.20;100.00;101605.06;5039344;28;20028;-70
2023/01/21 07:23:04;;;;;;;23.02;9.70;;;;;;;-1.17;100.00;101614.72;5079550;28;20020;-70
2023/01/21 07:25:31;;;;;;;33.10;13.65;;;;;;;-1.14;100.00;101625.28;5084350;28;20034;-70
2023/01/21 07:27:57;;;;;;;40.63;16.63;;;;;;;-1.15;100.00;101629.00;5083528;28;20028;-70
2023/01/21 07:30:22;;;;;;;37.47;15.00;;;;;;;-1.14;100.00;101630.72;5081795;28;20516;-70
2023/01/21 07:32:48;;;;;;;39.90;15.80;;;;;;;-1.15;100.00;101629.84;5114834;28;20031;-70
2023/01/21 07:35:13;;;;;;;47.25;18.30;;;;;;;-1.16;100.00;101647.25;5063620;28;20115;-70
2023/01/21 07:37:39;;;;;;;49.00;21.45;;;;;;;-1.16;100.00;101638.22;5076587;28;20048;-69
2023/01/21 07:40:05;;;;;;;32.40;15.38;;;;;;;-1.17;100.00;101655.59;5060231;28;20388;-70
2023/01/21 07:42:31;;;;;;;28.17;12.68;;;;;;;-1.15;100.00;101648.94;5061030;28;20032;-70
2023/01/21 07:44:58;;;;;;;23.63;11.57;;;;;;;-1.16;100.00;101657.31;5080180;28;20410;-70
2023/01/21 07:47:24;;;;;;;28.73;11.73;;;;;;;-1.20;100.00;101659.59;5076981;28;20028;-70
2023/01/21 07:49:49;;;;;;;33.15;13.38;;;;;;;-1.17;100.00;101661.94;5063789;28;20020;-70
2023/01/21 07:52:15;;;;;;;26.90;12.57;;;;;;;-1.19;100.00;101661.25;5080205;28;20024;-70
2023/01/21 07:54:40;;;;;;;27.27;12.75;;;;;;;-1.18;100.00;101668.41;5080276;28;20077;-71
2023/01/21 07:57:06;;;;;;;24.58;12.65;;;;;;;-1.18;100.00;101662.09;5063271;28;20055;-70
2023/01/21 07:59:31;;;;;;;25.23;11.20;;;;;;;-1.18;100.00;101668.41;5066542;28;20046;-70
2023/01/21 08:01:57;;;;;;;18.33;10.80;;;;;;;-1.17;100.00;101672.84;5045250;28;20036;-70
2023/01/21 08:04:24;;;;;;;23.02;10.48;;;;;;;-1.17;100.00;101678.28;5081131;28;20031;-70
2023/01/21 08:06:51;;;;;;;27.23;11.68;;;;;;;-1.16;100.00;101673.69;5059637;28;20130;-70
2023/01/21 08:09:17;;;;;;;26.35;12.00;;;;;;;-1.18;100.00;101673.84;5068200;28;20040;-70
2023/01/21 08:11:43;;;;;;;21.45;11.52;;;;;;;-1.21;100.00;101668.78;5075021;28;20028;-70
2023/01/21 08:14:08;;;;;;;22.73;11.40;;;;;;;-1.21;100.00;101673.38;5046931;28;20032;-70
2023/01/21 08:16:34;;;;;;;20.92;10.60;;;;;;;-1.31;100.00;101681.88;5071809;28;20036;-70
2023/01/21 08:18:59;;;;;;;25.00;12.73;;;;;;;-1.29;100.00;101679.78;5068060;28;20036;-70
2023/01/21 08:21:24;;;;;;;25.95;12.50;;;;;;;-1.29;100.00;101681.66;5057746;28;20511;-70
2023/01/21 08:23:50;;;;;;;19.42;10.70;;;;;;;-1.32;100.00;101687.47;5058857;28;20036;-70
2023/01/21 08:26:16;;;;;;;20.70;11.32;;;;;;;-1.36;100.00;101692.47;5066043;28;20027;-70
2023/01/21 08:28:41;;;;;;;22.40;12.30;;;;;;;-1.35;100.00;101694.16;5069976;28;20086;-70
2023/01/21 08:31:11;;;;;;;24.65;12.90;;;;;;;-1.36;100.00;101700.66;5066788;28;20032;-70
2023/01/21 08:33:36;;;;;;;21.70;11.70;;;;;;;-1.36;100.00;101697.91;5059997;28;20142;-70
2023/01/21 08:36:03;;;;;;;19.48;11.82;;;;;;;-1.32;100.00;101699.22;5043565;28;20036;-70
2023/01/21 08:38:28;;;;;;;19.00;11.32;;;;;;;-1.29;100.00;101704.31;5070390;28;20071;-70
2023/01/21 08:40:56;;;;;;;20.05;11.60;;;;;;;-1.25;100.00;101711.09;5025907;28;20052;-70
2023/01/21 08:43:21;;;;;;;20.35;11.38;;;;;;;-1.20;100.00;101714.09;5030820;28;20019;-70
2023/01/21 08:45:47;;;;;;;19.45;10.63;;;;;;;-1.15;100.00;101717.09;5086286;28;20047;-70
2023/01/21 08:48:12;;;;;;;20.50;11.57;;;;;;;-1.09;100.00;101720.09;5028488;28;20028;-70
2023/01/21 08:50:38;;;;;;;23.90;13.30;;;;;;;-1.04;100.00;101723.97;5042032;28;20024;-70
2023/01/21 08:53:03;;;;;;;22.63;11.18;;;;;;;-0.95;100.00;101727.44;5053967;28;20039;-70
2023/01/21 08:55:29;;;;;;;21.70;11.95;;;;;;;-0.88;100.00;101733.84;5027737;28;20753;-70
2023/01/21 08:57:54;;;;;;;21.48;12.85;;;;;;;-0.81;100.00;101745.69;5058828;28;20580;-70
2023/01/21 09:00:21;;;;;;;24.60;12.30;;;;;;;-0.76;100.00;101736.94;5058777;28;20029;-70
2023/01/21 09:02:46;;;;;;;27.83;14.75;;;;;;;-0.69;100.00;101738.72;5066075;28;20028;-70
2023/01/21 09:05:12;;;;;;;28.83;15.57;;;;;;;-0.61;100.00;101751.44;5017548;28;20028;-70
2023/01/21 09:07:37;;;;;;;35.72;17.08;;;;;;;-0.59;100.00;101743.03;5065896;28;20039;-70
2023/01/21 09:10:03;;;;;;;25.55;14.00;;;;;;;-0.52;100.00;101744.81;5060262;28;20035;-70
2023/01/21 09:12:29;;;;;;;28.95;13.60;;;;;;;-0.41;100.00;101751.66;5041612;28;20056;-70
2023/01/21 09:14:54;;;;;;;32.97;16.52;;;;;;;-0.29;100.00;101743.81;5039604;28;20040;-70
2023/01/21 09:17:21;;;;;;;35.00;15.88;;;;;;;-0.22;100.00;101752.94;5040730;28;20039;-70
2023/01/21 09:19:47;;;;;;;35.08;17.17;;;;;;;-0.15;100.00;101759.31;5049854;28;20027;-70
2023/01/21 09:22:12;;;;;;;37.30;16.15;;;;;;;-0.07;100.00;101755.63;5053779;28;20028;-70
2023/01/21 09:24:38;;;;;;;29.75;16.90;;;;;;;0.01;100.00;101758.25;5083823;28;20032;-70
2023/01/21 09:27:05;;;;;;;39.58;16.65;;;;;;;0.06;100.00;101758.50;5034725;28;20024;-70
2023/01/21 09:29:31;;;;;;;33.10;17.25;;;;;;;0.12;100.00;101756.88;5074566;28;20039;-70
2023/01/21 09:31:56;;;;;;;37.35;17.58;;;;;;;0.19;100.00;101758.63;5058056;28;20028;-71
2023/01/21 09:34:22;;;;;;;36.50;17.90;;;;;;;0.24;100.00;101763.50;5041643;28;20040;-70
2023/01/21 09:36:47;;;;;;;32.17;17.05;;;;;;;0.30;100.00;101767.34;5086952;28;20031;-70
2023/01/21 09:39:13;;;;;;;38.63;18.17;;;;;;;0.38;100.00;101767.22;5081169;28;20488;-70
2023/01/21 09:41:44;;;;;;;31.17;16.13;;;;;;;0.43;100.00;101764.75;5076861;28;20028;-70
2023/01/21 09:44:32;;;;;;;38.47;17.75;;;;;;;0.47;100.00;101770.66;5072637;28;20053;-70
2023/01/21 09:47:19;;;;;;;43.05;19.65;;;;;;;0.57;100.00;101776.66;5078119;28;20032;-70
2023/01/21 09:49:54;;;;;;;35.70;18.15;;;;;;;0.65;100.00;101784.72;5084665;28;20496;-72
2023/01/21 09:52:24;;;;;;;34.78;16.38;;;;;;;0.71;100.00;101783.06;5093619;28;20024;-73
2023/01/21 09:54:50;;;;;;;38.92;19.13;;;;;;;0.76;100.00;101788.81;5060986;28;20111;-73
2023/01/21 09:57:31;;;;;;;44.70;18.88;;;;;;;0.84;100.00;101791.38;5079640;28;20031;-73
2023/01/21 10:00:07;;;;;;;34.72;17.40;;;;;;;0.86;100.00;101789.28;5066837;28;20603;-71
2023/01/21 10:02:51;;;;;;;36.33;18.58;;;;;;;0.97;100.00;101798.84;5072547;28;20044;-70
2023/01/21 10:05:35;;;;;;;38.22;17.55;;;;;;;1.05;100.00;101791.31;5086128;28;20032;-70
2023/01/21 10:08:32;;;;;;;36.28;18.35;;;;;;;1.16;100.00;101798.13;5088122;28;20072;-70
2023/01/21 10:11:03;;;;;;;41.95;18.15;;;;;;;1.24;100.00;101805.34;5065982;28;20038;-70
2023/01/21 10:13:41;;;;;;;40.83;18.33;;;;;;;1.30;100.00;101804.53;5093667;28;20077;-70
2023/01/21 10:16:09;;;;;;;31.60;16.98;;;;;;;1.32;100.00;101808.75;5091670;28;20031;-70
2023/01/21 10:18:36;;;;;;;31.40;16.45;;;;;;;1.39;100.00;101811.53;5106519;28;20050;-70
2023/01/21 10:21:03;;;;;;;31.45;18.35;;;;;;;1.47;100.00;101816.00;5073911;28;20486;-70
2023/01/21 10:23:37;;;;;;;33.65;18.02;;;;;;;1.50;100.00;101812.84;5073967;28;20028;-70
2023/01/21 10:26:06;;;;;;;33.25;17.42;;;;;;;1.56;100.00;101814.78;5088924;28;20665;-70
2023/01/21 10:28:31;;;;;;;36.00;18.58;;;;;;;1.63;100.00;101825.78;5049120;28;20091;-70
2023/01/21 10:31:19;;;;;;;36.42;18.80;;;;;;;1.67;100.00;101827.94;5058087;28;20656;-71
2023/01/21 10:33:44;;;;;;;35.00;16.98;;;;;;;1.73;100.00;101823.53;5080882;28;20395;-70
2023/01/21 10:36:32;;;;;;;38.72;19.80;;;;;;;1.76;100.00;101831.34;5077145;28;20028;-70
2023/01/21 10:39:07;;;;;;;34.15;18.95;;;;;;;1.81;100.00;101830.72;5071354;28;20044;-70
2023/01/21 10:42:05;;;;;;;32.70;18.35;;;;;;;1.90;100.00;101844.03;5078580;28;20526;-72
2023/01/21 10:44:56;;;;;;;34.83;19.33;;;;;;;1.96;100.00;101840.47;5098374;28;20040;-71
2023/01/21 10:47:46;;;;;;;34.85;17.73;;;;;;;2.06;100.00;101831.03;5062819;28;20032;-71
2023/01/21 10:50:30;;;;;;;30.90;16.52;;;;;;;2.11;100.00;101834.84;5065101;28;20039;-70
2023/01/21 10:52:58;;;;;;;35.42;17.75;;;;;;;2.13;100.00;101837.38;5107363;28;20660;-71
2023/01/21 10:55:44;;;;;;;30.80;16.75;;;;;;;2.18;100.00;101835.72;5056631;28;20051;-71
2023/01/21 10:58:20;;;;;;;31.60;16.95;;;;;;;2.18;100.00;101834.88;5097594;28;20088;-71
2023/01/21 11:00:46;;;;;;;33.03;17.35;;;;;;;2.11;100.00;101843.06;5073260;28;20035;-70
2023/01/21 11:03:42;;;;;;;34.97;17.65;;;;;;;2.23;100.00;101837.84;5055780;28;20430;-71
2023/01/21 11:06:11;;;;;;;30.13;15.77;;;;;;;2.16;100.00;101847.94;5099209;28;20491;-71
2023/01/21 11:08:37;;;;;;;36.92;17.05;;;;;;;2.14;100.00;101848.13;5074220;28;20024;-71
2023/01/21 11:11:03;;;;;;;32.40;18.33;;;;;;;2.17;100.00;101849.63;5086606;28;20593;-71
2023/01/21 11:13:28;;;;;;;35.00;17.30;;;;;;;2.13;100.00;101854.66;5066469;28;20042;-71
2023/01/21 11:15:55;;;;;;;27.10;16.27;;;;;;;2.21;100.00;101845.44;5056963;28;20074;-70